Řízení letového provozu České republiky  
Aktualizace dat:  29.09.2016 08:11:09 UTC English version
   METEO Zobrazení stránky:  29.09.2016 08:21:31 UTC  
vysvětlivky
METAR EDDB 290750Z 20012KT 9999 SCT025 BKN270 18/12 Q1017 NOSIG=
METAR EDDC 290750Z 22008KT CAVOK 19/09 Q1020 NOSIG=
METAR EDDE 290750Z 23011KT 200V260 CAVOK 19/11 Q1020 NOSIG=
METAR EDDF 290750Z 21010KT 9999 FEW017 SCT250 17/11 Q1022 NOSIG=
METAR EDDM 290750Z 22005KT 180V240 CAVOK 16/12 Q1026 NOSIG=
METAR EDDN 290750Z 17004KT 110V240 CAVOK 17/11 Q1024 NOSIG=
METAR EDDP 290750Z 21013KT CAVOK 19/12 Q1019 NOSIG=
METAR EDDT 290750Z 21012KT 9999 FEW026 BKN300 19/12 Q1016 NOSIG=
METAR EDQM 290750Z 21011KT 9999 FEW020 15/09 Q1023=
METAR EPBY 290800Z 23011KT 190V260 9999 BKN025 18/12 Q1016 =
METAR EPGD 290800Z 25011KT 210V280 9999 SCT017 16/12 Q1013 =
METAR EPKK 290800Z 25010KT 9999 BKN038 17/12 Q1022 =
METAR EPKT 290800Z 24011KT 9999 FEW040 18/10 Q1022 =
METAR EPLL 290800Z 25013KT CAVOK 19/11 Q1019 =
METAR EPPO 290800Z 24012KT CAVOK 19/12 Q1018 =
METAR EPRZ 290800Z 26014KT CAVOK 19/12 Q1021 =
METAR EPWA 290800Z 28014KT 9999 FEW033 BKN046 19/12 Q1018 NOSIG=
METAR EPWR 290800Z 23009KT CAVOK 19/10 Q1021 =
METAR LHBP 290800Z 24007KT CAVOK 20/12 Q1025 NOSIG=
METAR LHSM 290745Z 16002KT CAVOK 14/10 Q1026 NOSIG=
METAR LKCV 290800Z 24011KT CAVOK 19/11 Q1023 NOSIG=
METAR LKKB 290800Z 22012KT CAVOK 18/12 Q1023 NOSIG =
METAR LKKU 290800Z 22006KT CAVOK 16/11 Q1024=
METAR LKKV 290800Z 27007KT 230V290 CAVOK 14/11 Q1023 RMK REG QNH 1019=
METAR LKLN 290800Z AUTO 24006KT CAVOK 17/12 Q1024=
METAR LKMT 290800Z 22012KT CAVOK 18/11 Q1023 NOSIG RMK REG QNH 1019=
METAR LKNA 290800Z 30004KT 260V020 CAVOK 17/11 Q1025 NOSIG=
METAR LKPD 290800Z VRB07KT CAVOK 19/10 Q1023 NOSIG =
METAR LKPR 290800Z 22018KT CAVOK 17/11 Q1022 NOSIG RMK REG QNH 1019=
METAR LKTB 290800Z 23003KT 170V280 CAVOK 17/11 Q1024 NOSIG RMK REG QNH 1019=
METAR LKVO 290800Z 23012KT 180V270 CAVOK 19/12 Q1022=
METAR LOWI 290750Z VRB01KT CAVOK 14/09 Q1028 NOSIG=
METAR LOWL 290750Z 26004KT 230V290 CAVOK 17/12 Q1026 NOSIG=
METAR LOWS 290750Z 15008KT CAVOK 16/11 Q1026 NOSIG=
METAR LOWW 290750Z 27012KT 240V310 CAVOK 21/11 Q1025 NOSIG=
METAR LZIB 290800Z 29008KT CAVOK 21/12 Q1025 NOSIG=
METAR LZKZ 290800Z VRB03KT CAVOK 17/11 Q1023 NOSIG=
METAR LZPP 290800Z 09003KT 060V130 CAVOK 17/13 Q1025=
METAR LZSL 290800Z 00000KT 9999 FEW030 15/12 Q1025=
METAR LZTT 290800Z 26006KT 9999 FEW046 16/10 Q1024 NOSIG=
METAR LZZI 290800Z VRB01KT 8000 FEW002 13/12 Q1024=